createdAt,value
2023-04-10T00:02:46.484Z,53.83
2023-04-10T00:05:36.468Z,52.28
2023-04-10T00:08:25.852Z,52.25
2023-04-10T00:11:14.349Z,50.87
2023-04-10T00:14:02.962Z,57.13
2023-04-10T00:16:51.927Z,63.47
2023-04-10T00:19:40.532Z,63.72
2023-04-10T00:22:30.402Z,62.03
2023-04-10T00:25:19.308Z,71.57
2023-04-10T00:28:07.798Z,63.80
2023-04-10T00:30:56.333Z,74.53
2023-04-10T00:33:44.904Z,70.57
2023-04-10T00:36:33.372Z,69.57
2023-04-10T00:39:23.237Z,79.03
2023-04-10T00:42:12.069Z,66.05
2023-04-10T00:45:01.282Z,65.63
2023-04-10T00:47:50.324Z,70.72
2023-04-10T00:50:39.016Z,74.57
2023-04-10T00:53:27.982Z,82.03
2023-04-10T00:56:18.316Z,79.07
2023-04-10T00:59:07.359Z,80.03
2023-04-10T01:01:56.469Z,77.93
2023-04-10T01:04:45.526Z,84.57
2023-04-10T01:07:55.061Z,89.90
2023-04-10T01:10:51.283Z,83.30
2023-04-10T01:13:51.780Z,86.13
2023-04-10T01:16:49.836Z,82.33
2023-04-10T01:20:01.404Z,79.03
2023-04-10T01:23:22.604Z,78.63
2023-04-10T01:26:13.246Z,75.13
2023-04-10T01:29:07.505Z,88.33
2023-04-10T01:32:09.368Z,76.00
2023-04-10T01:35:03.210Z,75.17
2023-04-10T01:37:56.082Z,78.13
2023-04-10T01:40:50.103Z,79.83
2023-04-10T01:43:50.461Z,84.10
2023-04-10T01:46:41.524Z,86.73
2023-04-10T01:49:34.015Z,81.63
2023-04-10T01:52:26.364Z,76.67
2023-04-10T01:55:27.425Z,79.00
2023-04-10T01:58:21.723Z,81.13
2023-04-10T02:01:19.327Z,81.73
2023-04-10T02:04:18.714Z,90.77
2023-04-10T02:07:12.811Z,92.53
2023-04-10T02:10:11.945Z,85.03
2023-04-10T02:13:06.792Z,98.93
2023-04-10T02:15:58.894Z,89.80
2023-04-10T02:18:49.688Z,107.03
2023-04-10T02:21:42.050Z,92.00
2023-04-10T02:24:31.037Z,90.57
2023-04-10T02:27:30.231Z,102.93
2023-04-10T02:30:20.651Z,99.03
2023-04-10T02:33:09.710Z,91.23
2023-04-10T02:35:58.268Z,90.07
2023-04-10T02:38:48.141Z,97.83
2023-04-10T02:41:36.738Z,85.80
2023-04-10T02:44:27.058Z,86.40
2023-04-10T02:47:15.989Z,89.80
2023-04-10T02:50:08.296Z,87.33
2023-04-10T02:52:59.448Z,87.83
2023-04-10T02:55:49.275Z,88.40
2023-04-10T02:58:38.278Z,90.23
2023-04-10T03:01:28.187Z,84.40
2023-04-10T03:04:18.182Z,83.43
2023-04-10T03:07:06.985Z,81.40
2023-04-10T03:09:56.874Z,86.37
2023-04-10T03:12:48.763Z,78.90
2023-04-10T03:15:37.416Z,79.67
2023-04-10T03:18:26.191Z,87.93
2023-04-10T03:21:16.669Z,81.87
2023-04-10T03:24:05.680Z,79.50
2023-04-10T03:26:54.163Z,79.53
2023-04-10T03:29:44.695Z,73.73
2023-04-10T03:32:33.640Z,74.93
2023-04-10T03:35:22.445Z,79.63
2023-04-10T03:38:24.856Z,73.50
2023-04-10T03:41:14.243Z,74.17
2023-04-10T03:44:03.768Z,76.30
2023-04-10T03:46:53.837Z,75.57
2023-04-10T03:49:42.385Z,67.23
2023-04-10T03:52:31.218Z,76.43
2023-04-10T03:55:21.001Z,77.27
2023-04-10T03:58:10.817Z,76.73
2023-04-10T04:00:59.469Z,74.67
2023-04-10T04:03:57.672Z,80.97
2023-04-10T04:06:55.904Z,71.77
2023-04-10T04:10:03.805Z,71.47
2023-04-10T04:13:11.992Z,71.20
2023-04-10T04:16:12.162Z,65.10
2023-04-10T04:19:17.183Z,61.57
2023-04-10T04:22:24.450Z,72.53
2023-04-10T04:25:31.407Z,58.13
2023-04-10T04:28:32.606Z,68.77
2023-04-10T04:31:39.280Z,59.70
2023-04-10T04:34:42.181Z,63.77
2023-04-10T04:37:43.031Z,59.50
2023-04-10T04:40:43.724Z,58.43
2023-04-10T04:43:42.330Z,55.60
2023-04-10T04:46:46.981Z,56.90
2023-04-10T04:49:52.250Z,55.00
2023-04-10T04:52:45.325Z,55.60
2023-04-10T04:55:54.068Z,61.93
2023-04-10T04:58:59.420Z,48.37
2023-04-10T05:02:11.585Z,51.67
2023-04-10T05:05:23.898Z,47.70
2023-04-10T05:08:44.801Z,48.77
2023-04-10T05:11:48.345Z,53.90
2023-04-10T05:14:36.902Z,46.73
2023-04-10T05:17:40.287Z,51.00
2023-04-10T05:20:56.593Z,46.57
2023-04-10T05:24:04.034Z,55.50
2023-04-10T05:27:02.125Z,47.50
2023-04-10T05:30:12.536Z,43.77
2023-04-10T05:33:17.278Z,44.80
2023-04-10T05:36:30.124Z,36.47
2023-04-10T05:39:37.344Z,37.87
2023-04-10T05:42:53.217Z,37.03
2023-04-10T05:45:56.070Z,42.83
2023-04-10T05:49:03.423Z,41.80
2023-04-10T05:52:11.697Z,36.90
2023-04-10T05:55:13.214Z,36.37
2023-04-10T05:58:37.054Z,34.63
2023-04-10T06:01:48.044Z,33.47
2023-04-10T06:04:37.380Z,33.10
2023-04-10T06:07:28.717Z,35.00
2023-04-10T06:10:17.295Z,32.23
2023-04-10T06:13:07.207Z,38.23
2023-04-10T06:15:57.522Z,35.60
2023-04-10T06:18:46.568Z,32.43
2023-04-10T06:21:35.102Z,30.83
2023-04-10T06:24:25.106Z,34.33
2023-04-10T06:27:14.553Z,30.93
2023-04-10T06:30:03.447Z,30.07
2023-04-10T06:32:52.194Z,29.03
2023-04-10T06:35:42.626Z,33.10
2023-04-10T06:38:31.520Z,28.70
2023-04-10T06:41:21.449Z,24.17
2023-04-10T06:44:16.179Z,25.87
2023-04-10T06:47:06.854Z,24.25
2023-04-10T06:49:55.435Z,25.35
2023-04-10T06:52:45.286Z,27.42
2023-04-10T06:55:33.982Z,25.38
2023-04-10T06:58:24.514Z,19.52
2023-04-10T07:01:13.349Z,16.58
2023-04-10T07:04:02.148Z,14.98
2023-04-10T07:06:51.073Z,16.80
2023-04-10T07:09:39.881Z,18.15
2023-04-10T07:12:28.934Z,18.50
2023-04-10T07:15:19.345Z,16.42
2023-04-10T07:18:08.003Z,15.70
2023-04-10T07:20:56.532Z,16.42
2023-04-10T07:23:44.930Z,15.13
2023-04-10T07:26:33.537Z,12.63
2023-04-10T07:29:22.121Z,14.38
2023-04-10T07:32:12.148Z,16.65
2023-04-10T07:35:16.673Z,16.33
2023-04-10T07:38:05.301Z,18.13
2023-04-10T07:40:58.084Z,12.15
2023-04-10T07:44:08.148Z,12.18
2023-04-10T07:46:56.913Z,9.65
2023-04-10T07:49:46.817Z,14.18
2023-04-10T07:52:35.439Z,10.55
2023-04-10T07:55:26.987Z,10.48
2023-04-10T07:58:15.840Z,13.98
2023-04-10T08:01:04.411Z,13.25
2023-04-10T08:03:53.376Z,11.93
2023-04-10T08:06:43.362Z,10.95
2023-04-10T08:09:32.017Z,14.18
2023-04-10T08:12:20.624Z,11.95
2023-04-10T08:15:10.461Z,11.95
2023-04-10T08:17:58.980Z,11.13
2023-04-10T08:20:57.865Z,10.73
2023-04-10T08:23:50.049Z,11.07
2023-04-10T08:26:38.554Z,11.68
2023-04-10T08:29:27.308Z,14.55
2023-04-10T08:32:15.761Z,12.77
2023-04-10T08:35:04.665Z,13.85
2023-04-10T08:38:07.774Z,11.85
2023-04-10T08:41:02.185Z,14.07
2023-04-10T08:43:51.601Z,9.25
2023-04-10T08:46:44.966Z,10.70
2023-04-10T08:49:44.783Z,7.90
2023-04-10T08:52:39.181Z,9.93
2023-04-10T08:55:28.369Z,8.48
2023-04-10T08:58:18.434Z,9.40
2023-04-10T09:01:09.980Z,9.32
2023-04-10T09:04:00.093Z,7.03
2023-04-10T09:06:48.946Z,5.38
2023-04-10T09:09:37.596Z,4.57
2023-04-10T09:12:26.300Z,2.10
2023-04-10T09:15:23.713Z,2.30
2023-04-10T09:18:12.218Z,2.83
2023-04-10T09:21:07.996Z,2.85
2023-04-10T09:24:04.581Z,2.50
2023-04-10T09:26:53.471Z,2.42
2023-04-10T09:29:48.408Z,3.58
2023-04-10T09:32:46.897Z,4.72
2023-04-10T09:35:39.831Z,2.70
2023-04-10T09:38:28.424Z,4.20
2023-04-10T09:41:24.470Z,3.78
2023-04-10T09:44:13.230Z,1.10
2023-04-10T09:47:19.133Z,2.10
2023-04-10T09:50:13.525Z,2.53
2023-04-10T09:53:02.095Z,2.10
2023-04-10T09:55:51.629Z,1.98
2023-04-10T09:58:40.121Z,1.60
2023-04-10T10:01:47.843Z,3.67
2023-04-10T10:04:37.720Z,4.55
2023-04-10T10:07:35.995Z,3.60
2023-04-10T10:10:27.744Z,2.78
2023-04-10T10:13:23.811Z,2.13
2023-04-10T10:16:21.463Z,2.00
2023-04-10T10:19:23.997Z,3.15
2023-04-10T10:22:33.799Z,2.50
2023-04-10T10:25:22.719Z,2.10
2023-04-10T10:28:15.010Z,2.22
2023-04-10T10:31:05.684Z,1.77
2023-04-10T10:33:55.436Z,2.90
2023-04-10T10:36:47.166Z,1.48
2023-04-10T10:39:58.666Z,2.22
2023-04-10T10:43:01.908Z,2.03
2023-04-10T10:46:00.412Z,3.70
2023-04-10T10:48:58.272Z,1.88
2023-04-10T10:51:49.457Z,2.53
2023-04-10T10:54:50.043Z,1.90
2023-04-10T10:57:52.350Z,2.00
2023-04-10T11:01:20.482Z,1.50
2023-04-10T11:14:57.918Z,2.40
2023-04-10T11:23:38.164Z,1.88
2023-04-10T11:42:36.795Z,1.33
2023-04-10T11:45:32.663Z,1.70
2023-04-10T12:22:26.186Z,1.65
2023-04-10T12:25:17.707Z,4.07
2023-04-10T12:31:11.529Z,1.55
2023-04-10T12:34:02.348Z,3.13
2023-04-10T12:36:56.149Z,1.75
2023-04-10T12:39:46.182Z,1.50
2023-04-10T12:42:42.551Z,1.58
2023-04-10T12:45:43.815Z,0.80
2023-04-10T12:48:32.554Z,2.60
2023-04-10T12:51:21.505Z,1.73
2023-04-10T12:54:41.934Z,2.15
2023-04-10T12:57:44.347Z,1.50
2023-04-10T13:00:33.153Z,2.03
2023-04-10T13:03:42.361Z,1.70
2023-04-10T13:06:31.363Z,1.35
2023-04-10T13:09:20.229Z,2.42
2023-04-10T13:12:08.741Z,1.85
2023-04-10T13:14:59.812Z,2.22
2023-04-10T13:17:48.577Z,1.63
2023-04-10T13:20:38.265Z,2.17
2023-04-10T13:23:26.738Z,2.17
2023-04-10T13:26:15.461Z,2.20
2023-04-10T13:29:04.055Z,1.95
2023-04-10T13:31:54.070Z,1.70
2023-04-10T13:38:25.692Z,1.60
2023-04-10T13:41:14.212Z,1.30
2023-04-10T13:44:02.825Z,1.17
2023-04-10T13:46:53.135Z,1.60
2023-04-10T13:49:41.781Z,2.95
2023-04-10T13:52:30.254Z,2.63
2023-04-10T13:55:27.455Z,1.75
2023-04-10T13:58:16.107Z,2.25
2023-04-10T14:01:16.438Z,2.60
2023-04-10T14:04:06.443Z,2.47
2023-04-10T14:06:58.652Z,2.50
2023-04-10T14:09:48.527Z,2.13
2023-04-10T14:12:37.912Z,2.33
2023-04-10T14:15:26.598Z,4.63
2023-04-10T14:18:17.634Z,1.90
2023-04-10T14:21:08.351Z,2.40
2023-04-10T14:23:57.044Z,2.13
2023-04-10T14:26:45.570Z,1.40
2023-04-10T14:29:40.529Z,1.52
2023-04-10T14:32:33.422Z,1.90
2023-04-10T14:35:22.001Z,1.50
2023-04-10T14:38:13.838Z,1.65
2023-04-10T14:41:06.752Z,1.75
2023-04-10T14:43:55.593Z,1.92
2023-04-10T14:46:44.288Z,2.28
2023-04-10T14:49:32.835Z,2.50
2023-04-10T14:52:23.331Z,2.10
2023-04-10T14:55:19.940Z,2.13
2023-04-10T14:58:11.237Z,1.67
2023-04-10T15:01:50.889Z,1.67
2023-04-10T15:04:39.859Z,1.98
2023-04-10T15:07:28.853Z,1.52
2023-04-10T15:10:19.121Z,1.63
2023-04-10T15:13:07.687Z,2.47
2023-04-10T15:15:57.471Z,2.70
2023-04-10T15:18:49.140Z,2.25
2023-04-10T15:21:37.716Z,1.92
2023-04-10T15:24:27.162Z,2.33
2023-04-10T15:27:21.020Z,2.83
2023-04-10T15:30:11.038Z,2.58
2023-04-10T15:32:59.858Z,2.55
2023-04-10T15:35:50.438Z,2.33
2023-04-10T15:38:39.217Z,2.83
2023-04-10T15:41:28.139Z,2.05
2023-04-10T15:44:18.390Z,2.42
2023-04-10T15:47:08.490Z,3.13
2023-04-10T15:49:59.665Z,2.75
2023-04-10T15:52:48.370Z,3.13
2023-04-10T15:55:41.130Z,2.30
2023-04-10T15:58:29.717Z,2.85
2023-04-10T16:01:19.660Z,1.77
2023-04-10T16:04:09.156Z,2.03
2023-04-10T16:06:57.882Z,1.92
2023-04-10T16:09:46.441Z,3.17
2023-04-10T16:12:35.091Z,3.63
2023-04-10T16:15:23.974Z,3.35
2023-04-10T16:18:13.993Z,3.40
2023-04-10T16:21:02.541Z,3.50
2023-04-10T16:23:51.170Z,3.90
2023-04-10T16:26:39.857Z,3.08
2023-04-10T16:29:28.498Z,2.72
2023-04-10T16:32:17.204Z,3.58
2023-04-10T16:35:08.938Z,3.50
2023-04-10T16:37:57.599Z,2.05
2023-04-10T16:40:46.202Z,2.60
2023-04-10T16:43:36.969Z,4.60
2023-04-10T16:46:25.637Z,3.72
2023-04-10T16:49:14.257Z,2.10
2023-04-10T16:52:04.174Z,2.55
2023-04-10T16:54:52.989Z,2.30
2023-04-10T16:57:41.535Z,2.60
2023-04-10T17:00:30.371Z,3.42
2023-04-10T17:03:19.157Z,3.05
2023-04-10T17:06:07.920Z,3.58
2023-04-10T17:08:57.988Z,2.47
2023-04-10T17:11:47.006Z,4.97
2023-04-10T17:14:35.804Z,3.35
2023-04-10T17:17:24.487Z,2.72
2023-04-10T17:20:13.991Z,3.20
2023-04-10T17:23:02.474Z,3.25
2023-04-10T17:25:52.624Z,3.75
2023-04-10T17:28:41.300Z,3.85
2023-04-10T17:31:31.279Z,2.70
2023-04-10T17:34:19.912Z,2.92
2023-04-10T17:37:08.441Z,1.88
2023-04-10T17:39:56.978Z,3.30
2023-04-10T17:42:47.164Z,4.45
2023-04-10T17:45:38.430Z,2.90
2023-04-10T17:48:27.182Z,2.38
2023-04-10T17:51:15.926Z,3.05
2023-04-10T17:54:04.757Z,2.70
2023-04-10T17:56:53.819Z,2.10
2023-04-10T17:59:43.702Z,3.63
2023-04-10T18:02:32.535Z,3.25
2023-04-10T18:05:21.314Z,2.50
2023-04-10T18:08:09.880Z,2.95
2023-04-10T18:10:58.388Z,3.63
2023-04-10T18:13:48.446Z,2.75
2023-04-10T18:16:38.523Z,1.75
2023-04-10T18:19:27.135Z,4.10
2023-04-10T18:22:15.703Z,3.97
2023-04-10T18:25:05.261Z,3.17
2023-04-10T18:28:13.187Z,3.17
2023-04-10T18:31:02.511Z,5.10
2023-04-10T18:34:06.288Z,3.22
2023-04-10T18:36:55.715Z,2.63
2023-04-10T18:39:45.338Z,3.22
2023-04-10T18:42:33.994Z,4.25
2023-04-10T18:45:22.399Z,3.50
2023-04-10T18:48:10.822Z,3.08
2023-04-10T18:51:04.641Z,2.70
2023-04-10T18:53:53.340Z,5.20
2023-04-10T18:56:41.869Z,3.17
2023-04-10T18:59:30.505Z,3.42
2023-04-10T19:02:19.082Z,2.55
2023-04-10T19:05:10.351Z,2.78
2023-04-10T19:08:04.560Z,3.22
2023-04-10T19:10:53.560Z,3.55
2023-04-10T19:13:42.052Z,3.25
2023-04-10T19:16:30.727Z,2.45
2023-04-10T19:19:19.162Z,4.32
2023-04-10T19:22:07.638Z,4.03
2023-04-10T19:24:57.500Z,3.20
2023-04-10T19:27:45.978Z,4.35
2023-04-10T19:30:34.628Z,5.25
2023-04-10T19:33:23.160Z,3.50
2023-04-10T19:36:11.800Z,3.65
2023-04-10T19:39:00.834Z,4.47
2023-04-10T19:41:50.699Z,3.55
2023-04-10T19:44:39.910Z,3.35
2023-04-10T19:47:42.903Z,3.00
2023-04-10T19:50:31.918Z,4.93
2023-04-10T19:53:20.632Z,4.18
2023-04-10T19:56:10.021Z,3.00
2023-04-10T19:59:01.684Z,3.38
2023-04-10T20:01:50.835Z,2.92
2023-04-10T20:04:41.762Z,2.72
2023-04-10T20:07:30.658Z,4.95
2023-04-10T20:10:19.491Z,2.78
2023-04-10T20:13:08.124Z,3.35
2023-04-10T20:15:58.189Z,4.03
2023-04-10T20:18:46.750Z,4.43
2023-04-10T20:21:35.345Z,3.42
2023-04-10T20:24:23.892Z,2.97
2023-04-10T20:27:12.433Z,3.95
2023-04-10T20:30:01.251Z,3.25
2023-04-10T20:32:51.385Z,4.43
2023-04-10T20:35:40.490Z,2.58
2023-04-10T20:38:29.233Z,3.83
2023-04-10T20:41:18.011Z,2.80
2023-04-10T20:44:07.586Z,3.63
2023-04-10T20:46:56.372Z,2.67
2023-04-10T20:49:46.587Z,2.78
2023-04-10T20:52:37.325Z,4.55
2023-04-10T20:55:26.405Z,3.17
2023-04-10T20:58:15.259Z,2.30
2023-04-10T21:01:03.951Z,2.47
2023-04-10T21:03:52.752Z,5.05
2023-04-10T21:06:42.872Z,3.08
2023-04-10T21:09:31.779Z,2.83
2023-04-10T21:12:20.647Z,5.63
2023-04-10T21:15:15.821Z,2.80
2023-04-10T21:18:06.698Z,3.10
2023-04-10T21:20:55.508Z,2.78
2023-04-10T21:23:45.949Z,2.08
2023-04-10T21:26:34.745Z,2.40
2023-04-10T21:29:23.293Z,1.85
2023-04-10T21:32:12.000Z,4.63
2023-04-10T21:35:00.744Z,2.20
2023-04-10T21:37:53.190Z,1.70
2023-04-10T21:40:43.012Z,1.38
2023-04-10T21:43:31.759Z,1.70
2023-04-10T21:46:23.258Z,3.88
2023-04-10T21:49:11.873Z,0.80
2023-04-10T21:52:00.361Z,0.93
2023-04-10T21:54:49.001Z,1.38
2023-04-10T21:57:39.150Z,1.13
2023-04-10T22:00:28.737Z,0.75
2023-04-10T22:03:20.022Z,2.33
2023-04-10T22:06:09.751Z,1.17
2023-04-10T22:08:58.205Z,0.80
2023-04-10T22:11:46.666Z,1.17
2023-04-10T22:14:39.581Z,2.65
2023-04-10T22:17:28.114Z,1.77
2023-04-10T22:20:17.256Z,1.15
2023-04-10T22:23:05.804Z,2.25
2023-04-10T22:25:54.238Z,1.85
2023-04-10T22:28:42.616Z,1.17
2023-04-10T22:31:32.316Z,1.27
2023-04-10T22:34:20.774Z,1.17
2023-04-10T22:37:09.188Z,1.83
2023-04-10T22:39:57.584Z,0.95
2023-04-10T22:42:48.259Z,2.13
2023-04-10T22:45:36.670Z,1.48
2023-04-10T22:48:26.720Z,3.38
2023-04-10T22:51:15.779Z,0.90
2023-04-10T22:54:04.652Z,3.25
2023-04-10T22:56:53.037Z,2.35
2023-04-10T22:59:41.554Z,1.00
2023-04-10T23:02:31.371Z,1.23
2023-04-10T23:05:21.376Z,1.48
2023-04-10T23:08:09.780Z,1.00
2023-04-10T23:10:58.500Z,0.75
2023-04-10T23:13:46.824Z,1.00
2023-04-10T23:16:35.244Z,0.80
2023-04-10T23:19:23.587Z,0.93
2023-04-10T23:22:13.352Z,2.85
2023-04-10T23:25:01.651Z,1.05
2023-04-10T23:27:50.068Z,1.90
2023-04-10T23:30:38.791Z,0.93
2023-04-10T23:33:33.294Z,0.70
2023-04-10T23:36:24.184Z,1.38
2023-04-10T23:39:13.984Z,0.77
2023-04-10T23:42:03.929Z,2.28
2023-04-10T23:44:52.385Z,1.02
2023-04-10T23:47:41.075Z,0.60
2023-04-10T23:50:29.455Z,1.58
2023-04-10T23:53:17.939Z,0.47
2023-04-10T23:56:08.912Z,3.88
2023-04-10T23:58:57.261Z,1.88
